sensor_id;sensor_type;location;lat;lon;timestamp;P1;durP1;ratioP1;P2;durP2;ratioP2
34200;SDS011;20469;55.638;37.670;2023-11-22T00:01:21;6.13;;;3.80;;
34200;SDS011;20469;55.638;37.670;2023-11-22T00:03:49;5.40;;;3.47;;
34200;SDS011;20469;55.638;37.670;2023-11-22T00:06:17;4.97;;;3.33;;
34200;SDS011;20469;55.638;37.670;2023-11-22T00:08:48;4.17;;;3.33;;
34200;SDS011;20469;55.638;37.670;2023-11-22T00:11:15;7.10;;;3.80;;
34200;SDS011;20469;55.638;37.670;2023-11-22T00:13:43;4.10;;;3.17;;
34200;SDS011;20469;55.638;37.670;2023-11-22T00:16:12;6.57;;;3.70;;
34200;SDS011;20469;55.638;37.670;2023-11-22T00:18:39;5.20;;;3.60;;
34200;SDS011;20469;55.638;37.670;2023-11-22T00:21:07;4.30;;;3.20;;
34200;SDS011;20469;55.638;37.670;2023-11-22T00:23:36;5.30;;;3.13;;
34200;SDS011;20469;55.638;37.670;2023-11-22T00:26:04;5.37;;;3.70;;
34200;SDS011;20469;55.638;37.670;2023-11-22T00:28:33;5.67;;;3.53;;
34200;SDS011;20469;55.638;37.670;2023-11-22T00:31:01;4.70;;;3.23;;
34200;SDS011;20469;55.638;37.670;2023-11-22T00:33:29;3.73;;;3.33;;
34200;SDS011;20469;55.638;37.670;2023-11-22T00:35:58;4.50;;;3.20;;
34200;SDS011;20469;55.638;37.670;2023-11-22T00:38:25;5.07;;;3.80;;
34200;SDS011;20469;55.638;37.670;2023-11-22T00:40:53;3.67;;;3.20;;
34200;SDS011;20469;55.638;37.670;2023-11-22T00:43:21;5.17;;;3.57;;
34200;SDS011;20469;55.638;37.670;2023-11-22T00:45:49;6.20;;;3.23;;
34200;SDS011;20469;55.638;37.670;2023-11-22T00:48:17;5.00;;;3.50;;
34200;SDS011;20469;55.638;37.670;2023-11-22T00:50:45;4.87;;;3.10;;
34200;SDS011;20469;55.638;37.670;2023-11-22T00:53:13;4.33;;;3.33;;
34200;SDS011;20469;55.638;37.670;2023-11-22T00:55:41;5.00;;;3.10;;
34200;SDS011;20469;55.638;37.670;2023-11-22T00:58:09;4.77;;;3.13;;
34200;SDS011;20469;55.638;37.670;2023-11-22T01:00:37;4.53;;;3.20;;
34200;SDS011;20469;55.638;37.670;2023-11-22T01:03:04;3.87;;;3.17;;
34200;SDS011;20469;55.638;37.670;2023-11-22T01:05:32;4.17;;;3.40;;
34200;SDS011;20469;55.638;37.670;2023-11-22T01:08:04;4.10;;;3.05;;
34200;SDS011;20469;55.638;37.670;2023-11-22T01:10:32;4.47;;;2.90;;
34200;SDS011;20469;55.638;37.670;2023-11-22T01:13:00;4.83;;;3.57;;
34200;SDS011;20469;55.638;37.670;2023-11-22T01:15:27;6.27;;;3.33;;
34200;SDS011;20469;55.638;37.670;2023-11-22T01:17:55;5.87;;;3.67;;
34200;SDS011;20469;55.638;37.670;2023-11-22T01:20:23;6.30;;;4.03;;
34200;SDS011;20469;55.638;37.670;2023-11-22T01:22:50;4.47;;;3.60;;
34200;SDS011;20469;55.638;37.670;2023-11-22T01:25:18;5.17;;;3.63;;
34200;SDS011;20469;55.638;37.670;2023-11-22T01:27:46;4.83;;;3.53;;
34200;SDS011;20469;55.638;37.670;2023-11-22T01:30:14;4.83;;;3.40;;
34200;SDS011;20469;55.638;37.670;2023-11-22T01:32:41;6.30;;;4.50;;
34200;SDS011;20469;55.638;37.670;2023-11-22T01:35:09;5.87;;;4.00;;
34200;SDS011;20469;55.638;37.670;2023-11-22T01:37:37;6.70;;;4.27;;
34200;SDS011;20469;55.638;37.670;2023-11-22T01:40:05;6.03;;;3.70;;
34200;SDS011;20469;55.638;37.670;2023-11-22T01:42:34;8.10;;;4.30;;
34200;SDS011;20469;55.638;37.670;2023-11-22T01:45:03;6.33;;;3.93;;
34200;SDS011;20469;55.638;37.670;2023-11-22T01:47:31;6.90;;;4.43;;
34200;SDS011;20469;55.638;37.670;2023-11-22T01:49:59;7.27;;;3.90;;
34200;SDS011;20469;55.638;37.670;2023-11-22T01:52:29;6.17;;;4.17;;
34200;SDS011;20469;55.638;37.670;2023-11-22T01:54:57;7.03;;;4.47;;
34200;SDS011;20469;55.638;37.670;2023-11-22T01:57:25;5.67;;;3.83;;
34200;SDS011;20469;55.638;37.670;2023-11-22T01:59:53;6.03;;;4.43;;
34200;SDS011;20469;55.638;37.670;2023-11-22T02:02:20;9.23;;;4.90;;
34200;SDS011;20469;55.638;37.670;2023-11-22T02:04:48;7.27;;;4.53;;
34200;SDS011;20469;55.638;37.670;2023-11-22T02:07:16;7.40;;;4.40;;
34200;SDS011;20469;55.638;37.670;2023-11-22T02:09:44;5.53;;;4.03;;
34200;SDS011;20469;55.638;37.670;2023-11-22T02:12:12;7.13;;;4.37;;
34200;SDS011;20469;55.638;37.670;2023-11-22T02:14:40;5.90;;;4.33;;
34200;SDS011;20469;55.638;37.670;2023-11-22T02:17:08;7.53;;;4.63;;
34200;SDS011;20469;55.638;37.670;2023-11-22T02:19:36;7.90;;;4.63;;
34200;SDS011;20469;55.638;37.670;2023-11-22T02:22:04;7.30;;;4.50;;
34200;SDS011;20469;55.638;37.670;2023-11-22T02:24:31;6.63;;;4.27;;
34200;SDS011;20469;55.638;37.670;2023-11-22T02:27:00;7.33;;;4.57;;
34200;SDS011;20469;55.638;37.670;2023-11-22T02:29:28;7.47;;;4.53;;
34200;SDS011;20469;55.638;37.670;2023-11-22T02:31:56;6.97;;;4.67;;
34200;SDS011;20469;55.638;37.670;2023-11-22T02:34:24;5.10;;;4.10;;
34200;SDS011;20469;55.638;37.670;2023-11-22T02:36:52;6.10;;;4.57;;
34200;SDS011;20469;55.638;37.670;2023-11-22T02:39:40;7.63;;;4.53;;
34200;SDS011;20469;55.638;37.670;2023-11-22T02:42:10;7.00;;;4.33;;
34200;SDS011;20469;55.638;37.670;2023-11-22T02:44:37;6.57;;;4.00;;
34200;SDS011;20469;55.638;37.670;2023-11-22T02:47:06;6.53;;;4.00;;
34200;SDS011;20469;55.638;37.670;2023-11-22T02:49:34;7.27;;;4.30;;
34200;SDS011;20469;55.638;37.670;2023-11-22T02:52:01;6.43;;;3.17;;
34200;SDS011;20469;55.638;37.670;2023-11-22T02:54:29;6.43;;;4.03;;
34200;SDS011;20469;55.638;37.670;2023-11-22T02:56:57;5.30;;;3.90;;
34200;SDS011;20469;55.638;37.670;2023-11-22T02:59:24;5.00;;;3.30;;
34200;SDS011;20469;55.638;37.670;2023-11-22T03:01:52;6.80;;;3.93;;
34200;SDS011;20469;55.638;37.670;2023-11-22T03:04:20;6.80;;;4.20;;
34200;SDS011;20469;55.638;37.670;2023-11-22T03:06:48;5.10;;;3.67;;
34200;SDS011;20469;55.638;37.670;2023-11-22T03:09:15;5.67;;;3.80;;
34200;SDS011;20469;55.638;37.670;2023-11-22T03:11:43;5.37;;;3.77;;
34200;SDS011;20469;55.638;37.670;2023-11-22T03:14:11;5.10;;;3.50;;
34200;SDS011;20469;55.638;37.670;2023-11-22T03:16:39;8.40;;;3.63;;
34200;SDS011;20469;55.638;37.670;2023-11-22T03:19:07;7.40;;;3.80;;
34200;SDS011;20469;55.638;37.670;2023-11-22T03:21:34;6.43;;;3.97;;
34200;SDS011;20469;55.638;37.670;2023-11-22T03:24:02;5.73;;;3.40;;
34200;SDS011;20469;55.638;37.670;2023-11-22T03:26:30;5.33;;;3.23;;
34200;SDS011;20469;55.638;37.670;2023-11-22T03:28:58;5.43;;;3.73;;
34200;SDS011;20469;55.638;37.670;2023-11-22T03:31:26;5.57;;;3.70;;
34200;SDS011;20469;55.638;37.670;2023-11-22T03:33:54;7.33;;;3.83;;
34200;SDS011;20469;55.638;37.670;2023-11-22T03:36:22;5.70;;;4.00;;
34200;SDS011;20469;55.638;37.670;2023-11-22T03:38:50;5.40;;;3.50;;
34200;SDS011;20469;55.638;37.670;2023-11-22T03:41:18;5.60;;;3.57;;
34200;SDS011;20469;55.638;37.670;2023-11-22T03:43:45;4.57;;;3.20;;
34200;SDS011;20469;55.638;37.670;2023-11-22T03:46:13;5.27;;;3.90;;
34200;SDS011;20469;55.638;37.670;2023-11-22T03:48:41;6.07;;;3.60;;
34200;SDS011;20469;55.638;37.670;2023-11-22T03:51:09;6.53;;;3.70;;
34200;SDS011;20469;55.638;37.670;2023-11-22T03:53:37;5.97;;;3.73;;
34200;SDS011;20469;55.638;37.670;2023-11-22T03:56:04;7.23;;;3.63;;
34200;SDS011;20469;55.638;37.670;2023-11-22T03:58:32;5.87;;;3.10;;
34200;SDS011;20469;55.638;37.670;2023-11-22T04:01:00;6.07;;;3.47;;
34200;SDS011;20469;55.638;37.670;2023-11-22T04:03:29;4.57;;;3.10;;
34200;SDS011;20469;55.638;37.670;2023-11-22T04:05:57;4.67;;;3.27;;
34200;SDS011;20469;55.638;37.670;2023-11-22T04:08:25;4.97;;;3.53;;
34200;SDS011;20469;55.638;37.670;2023-11-22T04:10:53;5.40;;;3.33;;
34200;SDS011;20469;55.638;37.670;2023-11-22T04:13:22;6.53;;;3.40;;
34200;SDS011;20469;55.638;37.670;2023-11-22T04:15:51;7.87;;;3.90;;
34200;SDS011;20469;55.638;37.670;2023-11-22T04:18:19;7.07;;;3.87;;
34200;SDS011;20469;55.638;37.670;2023-11-22T04:20:48;4.53;;;3.27;;
34200;SDS011;20469;55.638;37.670;2023-11-22T04:23:15;6.17;;;3.60;;
34200;SDS011;20469;55.638;37.670;2023-11-22T04:25:43;6.63;;;3.60;;
34200;SDS011;20469;55.638;37.670;2023-11-22T04:28:11;4.80;;;2.80;;
34200;SDS011;20469;55.638;37.670;2023-11-22T04:30:39;6.73;;;3.53;;
34200;SDS011;20469;55.638;37.670;2023-11-22T04:33:07;5.23;;;3.73;;
34200;SDS011;20469;55.638;37.670;2023-11-22T04:35:35;5.40;;;3.50;;
34200;SDS011;20469;55.638;37.670;2023-11-22T04:38:04;6.27;;;3.83;;
34200;SDS011;20469;55.638;37.670;2023-11-22T04:40:32;6.53;;;3.83;;
34200;SDS011;20469;55.638;37.670;2023-11-22T04:43:00;6.07;;;3.70;;
34200;SDS011;20469;55.638;37.670;2023-11-22T04:45:28;7.47;;;3.63;;
34200;SDS011;20469;55.638;37.670;2023-11-22T04:47:56;5.70;;;3.50;;
34200;SDS011;20469;55.638;37.670;2023-11-22T04:50:24;7.00;;;3.77;;
34200;SDS011;20469;55.638;37.670;2023-11-22T04:52:52;7.53;;;3.87;;
34200;SDS011;20469;55.638;37.670;2023-11-22T04:55:19;6.07;;;3.70;;
34200;SDS011;20469;55.638;37.670;2023-11-22T04:57:47;7.10;;;4.33;;
34200;SDS011;20469;55.638;37.670;2023-11-22T05:00:15;6.20;;;3.80;;
34200;SDS011;20469;55.638;37.670;2023-11-22T05:02:43;5.33;;;3.33;;
34200;SDS011;20469;55.638;37.670;2023-11-22T05:05:11;5.00;;;3.83;;
34200;SDS011;20469;55.638;37.670;2023-11-22T05:07:39;5.53;;;3.77;;
34200;SDS011;20469;55.638;37.670;2023-11-22T05:10:07;7.80;;;3.43;;
34200;SDS011;20469;55.638;37.670;2023-11-22T05:12:35;5.67;;;3.00;;
34200;SDS011;20469;55.638;37.670;2023-11-22T05:15:03;5.07;;;3.20;;
34200;SDS011;20469;55.638;37.670;2023-11-22T05:17:33;4.47;;;3.30;;
34200;SDS011;20469;55.638;37.670;2023-11-22T05:20:01;6.30;;;3.13;;
34200;SDS011;20469;55.638;37.670;2023-11-22T05:22:32;4.50;;;3.23;;
34200;SDS011;20469;55.638;37.670;2023-11-22T05:24:59;5.13;;;3.37;;
34200;SDS011;20469;55.638;37.670;2023-11-22T05:27:30;7.13;;;3.43;;
34200;SDS011;20469;55.638;37.670;2023-11-22T05:29:59;4.67;;;3.30;;
34200;SDS011;20469;55.638;37.670;2023-11-22T05:32:30;5.10;;;3.40;;
34200;SDS011;20469;55.638;37.670;2023-11-22T05:34:58;5.10;;;3.63;;
34200;SDS011;20469;55.638;37.670;2023-11-22T05:37:25;4.90;;;3.67;;
34200;SDS011;20469;55.638;37.670;2023-11-22T05:39:53;6.53;;;3.60;;
34200;SDS011;20469;55.638;37.670;2023-11-22T05:42:21;4.70;;;2.60;;
34200;SDS011;20469;55.638;37.670;2023-11-22T05:44:49;5.97;;;3.80;;
34200;SDS011;20469;55.638;37.670;2023-11-22T05:47:17;4.50;;;2.80;;
34200;SDS011;20469;55.638;37.670;2023-11-22T05:49:45;4.63;;;2.60;;
34200;SDS011;20469;55.638;37.670;2023-11-22T05:52:13;5.77;;;2.90;;
34200;SDS011;20469;55.638;37.670;2023-11-22T05:54:40;5.27;;;2.90;;
34200;SDS011;20469;55.638;37.670;2023-11-22T05:57:08;4.40;;;2.63;;
34200;SDS011;20469;55.638;37.670;2023-11-22T05:59:36;4.43;;;2.50;;
34200;SDS011;20469;55.638;37.670;2023-11-22T06:02:04;4.10;;;2.90;;
34200;SDS011;20469;55.638;37.670;2023-11-22T06:04:35;4.63;;;2.77;;
34200;SDS011;20469;55.638;37.670;2023-11-22T06:07:06;8.20;;;3.50;;
34200;SDS011;20469;55.638;37.670;2023-11-22T06:09:34;6.73;;;3.00;;
34200;SDS011;20469;55.638;37.670;2023-11-22T06:12:02;7.80;;;3.43;;
34200;SDS011;20469;55.638;37.670;2023-11-22T06:14:30;4.33;;;2.80;;
34200;SDS011;20469;55.638;37.670;2023-11-22T06:16:58;6.30;;;3.10;;
34200;SDS011;20469;55.638;37.670;2023-11-22T06:19:26;7.27;;;2.73;;
34200;SDS011;20469;55.638;37.670;2023-11-22T06:21:54;5.83;;;2.50;;
34200;SDS011;20469;55.638;37.670;2023-11-22T06:24:23;3.67;;;2.43;;
34200;SDS011;20469;55.638;37.670;2023-11-22T06:26:52;5.67;;;3.10;;
34200;SDS011;20469;55.638;37.670;2023-11-22T06:29:20;4.37;;;2.80;;
34200;SDS011;20469;55.638;37.670;2023-11-22T06:31:48;3.43;;;2.27;;
34200;SDS011;20469;55.638;37.670;2023-11-22T06:34:15;7.60;;;3.10;;
34200;SDS011;20469;55.638;37.670;2023-11-22T06:36:43;4.80;;;2.90;;
34200;SDS011;20469;55.638;37.670;2023-11-22T06:39:11;2.97;;;2.40;;
34200;SDS011;20469;55.638;37.670;2023-11-22T06:41:42;3.58;;;2.10;;
34200;SDS011;20469;55.638;37.670;2023-11-22T06:44:10;11.73;;;4.03;;
34200;SDS011;20469;55.638;37.670;2023-11-22T06:46:38;4.43;;;2.50;;
34200;SDS011;20469;55.638;37.670;2023-11-22T06:49:06;4.27;;;2.47;;
34200;SDS011;20469;55.638;37.670;2023-11-22T06:51:34;4.80;;;2.70;;
34200;SDS011;20469;55.638;37.670;2023-11-22T06:54:01;4.23;;;2.37;;
34200;SDS011;20469;55.638;37.670;2023-11-22T06:56:29;4.27;;;2.77;;
34200;SDS011;20469;55.638;37.670;2023-11-22T06:58:57;2.87;;;2.00;;
34200;SDS011;20469;55.638;37.670;2023-11-22T07:01:25;4.57;;;2.27;;
34200;SDS011;20469;55.638;37.670;2023-11-22T07:03:52;4.07;;;2.30;;
34200;SDS011;20469;55.638;37.670;2023-11-22T07:06:22;22.87;;;5.60;;
34200;SDS011;20469;55.638;37.670;2023-11-22T07:08:49;4.27;;;2.30;;
34200;SDS011;20469;55.638;37.670;2023-11-22T07:11:24;5.47;;;2.47;;
34200;SDS011;20469;55.638;37.670;2023-11-22T07:13:53;3.10;;;2.40;;
34200;SDS011;20469;55.638;37.670;2023-11-22T07:16:20;3.73;;;1.90;;
34200;SDS011;20469;55.638;37.670;2023-11-22T07:18:48;4.73;;;2.33;;
34200;SDS011;20469;55.638;37.670;2023-11-22T07:21:16;2.87;;;1.80;;
34200;SDS011;20469;55.638;37.670;2023-11-22T07:23:44;5.33;;;2.40;;
34200;SDS011;20469;55.638;37.670;2023-11-22T07:26:12;5.80;;;1.73;;
34200;SDS011;20469;55.638;37.670;2023-11-22T07:28:43;2.80;;;1.90;;
34200;SDS011;20469;55.638;37.670;2023-11-22T07:31:11;3.53;;;1.90;;
34200;SDS011;20469;55.638;37.670;2023-11-22T07:33:38;3.10;;;2.00;;
34200;SDS011;20469;55.638;37.670;2023-11-22T07:36:06;1.90;;;1.60;;
34200;SDS011;20469;55.638;37.670;2023-11-22T07:38:34;3.10;;;1.90;;
34200;SDS011;20469;55.638;37.670;2023-11-22T07:41:04;3.50;;;1.80;;
34200;SDS011;20469;55.638;37.670;2023-11-22T07:43:34;4.00;;;2.10;;
34200;SDS011;20469;55.638;37.670;2023-11-22T07:46:06;2.50;;;1.83;;
34200;SDS011;20469;55.638;37.670;2023-11-22T07:48:41;2.73;;;1.80;;
34200;SDS011;20469;55.638;37.670;2023-11-22T07:51:09;3.57;;;2.27;;
34200;SDS011;20469;55.638;37.670;2023-11-22T07:53:36;6.20;;;2.40;;
34200;SDS011;20469;55.638;37.670;2023-11-22T07:56:06;3.00;;;1.83;;
34200;SDS011;20469;55.638;37.670;2023-11-22T07:58:35;5.87;;;2.77;;
34200;SDS011;20469;55.638;37.670;2023-11-22T08:01:02;3.23;;;2.03;;
34200;SDS011;20469;55.638;37.670;2023-11-22T08:03:32;4.33;;;2.37;;
34200;SDS011;20469;55.638;37.670;2023-11-22T08:06:02;10.13;;;2.93;;
34200;SDS011;20469;55.638;37.670;2023-11-22T08:08:29;3.20;;;2.20;;
34200;SDS011;20469;55.638;37.670;2023-11-22T08:10:57;5.23;;;1.93;;
34200;SDS011;20469;55.638;37.670;2023-11-22T08:13:25;2.83;;;2.10;;
34200;SDS011;20469;55.638;37.670;2023-11-22T08:15:53;3.30;;;2.10;;
34200;SDS011;20469;55.638;37.670;2023-11-22T08:18:21;2.87;;;2.00;;
34200;SDS011;20469;55.638;37.670;2023-11-22T08:20:49;3.10;;;1.80;;
34200;SDS011;20469;55.638;37.670;2023-11-22T08:23:16;5.73;;;2.57;;
34200;SDS011;20469;55.638;37.670;2023-11-22T08:25:44;9.80;;;2.87;;
34200;SDS011;20469;55.638;37.670;2023-11-22T08:28:12;4.00;;;2.10;;
34200;SDS011;20469;55.638;37.670;2023-11-22T08:30:39;2.80;;;2.40;;
34200;SDS011;20469;55.638;37.670;2023-11-22T08:33:08;4.87;;;2.30;;
34200;SDS011;20469;55.638;37.670;2023-11-22T08:35:36;3.80;;;2.20;;
34200;SDS011;20469;55.638;37.670;2023-11-22T08:38:03;2.90;;;2.10;;
34200;SDS011;20469;55.638;37.670;2023-11-22T08:40:34;2.63;;;1.70;;
34200;SDS011;20469;55.638;37.670;2023-11-22T08:43:03;2.90;;;1.63;;
34200;SDS011;20469;55.638;37.670;2023-11-22T08:45:31;3.60;;;1.93;;
34200;SDS011;20469;55.638;37.670;2023-11-22T08:47:59;2.87;;;1.80;;
34200;SDS011;20469;55.638;37.670;2023-11-22T08:50:27;4.20;;;2.10;;
34200;SDS011;20469;55.638;37.670;2023-11-22T08:52:55;2.73;;;2.00;;
34200;SDS011;20469;55.638;37.670;2023-11-22T08:55:24;1.83;;;1.50;;
34200;SDS011;20469;55.638;37.670;2023-11-22T08:57:52;3.70;;;1.90;;
34200;SDS011;20469;55.638;37.670;2023-11-22T09:00:20;2.67;;;1.83;;
34200;SDS011;20469;55.638;37.670;2023-11-22T09:02:54;2.50;;;1.90;;
34200;SDS011;20469;55.638;37.670;2023-11-22T09:05:22;2.57;;;1.83;;
34200;SDS011;20469;55.638;37.670;2023-11-22T09:07:51;2.30;;;2.10;;
34200;SDS011;20469;55.638;37.670;2023-11-22T09:10:22;2.77;;;1.77;;
34200;SDS011;20469;55.638;37.670;2023-11-22T09:12:50;4.97;;;2.13;;
34200;SDS011;20469;55.638;37.670;2023-11-22T09:15:18;2.43;;;1.90;;
34200;SDS011;20469;55.638;37.670;2023-11-22T09:17:52;3.40;;;1.97;;
34200;SDS011;20469;55.638;37.670;2023-11-22T09:20:20;4.37;;;2.20;;
34200;SDS011;20469;55.638;37.670;2023-11-22T09:22:49;3.70;;;1.90;;
34200;SDS011;20469;55.638;37.670;2023-11-22T09:25:17;5.30;;;2.17;;
34200;SDS011;20469;55.638;37.670;2023-11-22T09:27:46;6.70;;;2.70;;
34200;SDS011;20469;55.638;37.670;2023-11-22T09:30:15;8.85;;;2.90;;
34200;SDS011;20469;55.638;37.670;2023-11-22T09:33:06;2.90;;;2.10;;
34200;SDS011;20469;55.638;37.670;2023-11-22T09:35:35;5.00;;;2.58;;
34200;SDS011;20469;55.638;37.670;2023-11-22T09:38:07;2.90;;;2.20;;
34200;SDS011;20469;55.638;37.670;2023-11-22T09:40:46;7.60;;;3.00;;
34200;SDS011;20469;55.638;37.670;2023-11-22T09:43:15;3.22;;;2.30;;
34200;SDS011;20469;55.638;37.670;2023-11-22T09:45:47;3.05;;;2.53;;
34200;SDS011;20469;55.638;37.670;2023-11-22T09:48:22;4.97;;;2.72;;
34200;SDS011;20469;55.638;37.670;2023-11-22T09:51:02;4.22;;;3.10;;
34200;SDS011;20469;55.638;37.670;2023-11-22T09:53:36;6.50;;;3.40;;
34200;SDS011;20469;55.638;37.670;2023-11-22T09:56:07;5.95;;;3.30;;
34200;SDS011;20469;55.638;37.670;2023-11-22T09:58:42;11.80;;;4.40;;
34200;SDS011;20469;55.638;37.670;2023-11-22T10:01:11;6.68;;;3.30;;
34200;SDS011;20469;55.638;37.670;2023-11-22T10:03:40;5.20;;;3.13;;
34200;SDS011;20469;55.638;37.670;2023-11-22T10:06:08;4.75;;;3.00;;
34200;SDS011;20469;55.638;37.670;2023-11-22T10:08:36;5.32;;;3.03;;
34200;SDS011;20469;55.638;37.670;2023-11-22T10:11:05;4.85;;;2.95;;
34200;SDS011;20469;55.638;37.670;2023-11-22T10:13:33;3.78;;;2.80;;
34200;SDS011;20469;55.638;37.670;2023-11-22T10:16:11;4.20;;;2.92;;
34200;SDS011;20469;55.638;37.670;2023-11-22T10:18:40;4.68;;;2.50;;
34200;SDS011;20469;55.638;37.670;2023-11-22T10:21:24;9.10;;;2.92;;
34200;SDS011;20469;55.638;37.670;2023-11-22T10:23:55;4.25;;;2.97;;
34200;SDS011;20469;55.638;37.670;2023-11-22T10:26:24;6.80;;;3.10;;
34200;SDS011;20469;55.638;37.670;2023-11-22T10:28:55;5.07;;;2.55;;
34200;SDS011;20469;55.638;37.670;2023-11-22T10:31:23;6.65;;;2.75;;
34200;SDS011;20469;55.638;37.670;2023-11-22T10:33:52;6.25;;;2.90;;
34200;SDS011;20469;55.638;37.670;2023-11-22T10:36:23;5.15;;;2.55;;
34200;SDS011;20469;55.638;37.670;2023-11-22T10:38:51;4.15;;;2.63;;
34200;SDS011;20469;55.638;37.670;2023-11-22T10:41:19;4.90;;;2.55;;
34200;SDS011;20469;55.638;37.670;2023-11-22T10:43:51;7.88;;;2.92;;
34200;SDS011;20469;55.638;37.670;2023-11-22T10:46:29;6.00;;;2.95;;
34200;SDS011;20469;55.638;37.670;2023-11-22T10:48:57;4.43;;;3.13;;
34200;SDS011;20469;55.638;37.670;2023-11-22T10:51:27;25.20;;;6.00;;
34200;SDS011;20469;55.638;37.670;2023-11-22T10:53:57;6.57;;;3.13;;
34200;SDS011;20469;55.638;37.670;2023-11-22T10:56:27;5.88;;;2.90;;
34200;SDS011;20469;55.638;37.670;2023-11-22T10:58:58;8.32;;;3.03;;
34200;SDS011;20469;55.638;37.670;2023-11-22T11:01:26;7.22;;;3.10;;
34200;SDS011;20469;55.638;37.670;2023-11-22T11:04:02;8.27;;;3.08;;
34200;SDS011;20469;55.638;37.670;2023-11-22T11:06:34;4.35;;;3.10;;
34200;SDS011;20469;55.638;37.670;2023-11-22T11:09:03;6.18;;;2.60;;
34200;SDS011;20469;55.638;37.670;2023-11-22T11:11:37;13.15;;;4.03;;
34200;SDS011;20469;55.638;37.670;2023-11-22T11:14:08;7.50;;;2.90;;
34200;SDS011;20469;55.638;37.670;2023-11-22T11:16:42;3.92;;;2.60;;
34200;SDS011;20469;55.638;37.670;2023-11-22T11:19:16;10.05;;;6.25;;
34200;SDS011;20469;55.638;37.670;2023-11-22T11:21:44;7.78;;;2.90;;
34200;SDS011;20469;55.638;37.670;2023-11-22T11:24:12;4.53;;;2.80;;
34200;SDS011;20469;55.638;37.670;2023-11-22T11:26:41;9.18;;;3.20;;
34200;SDS011;20469;55.638;37.670;2023-11-22T11:32:15;6.82;;;2.97;;
34200;SDS011;20469;55.638;37.670;2023-11-22T11:34:49;5.57;;;3.10;;
34200;SDS011;20469;55.638;37.670;2023-11-22T11:37:20;6.38;;;3.10;;
34200;SDS011;20469;55.638;37.670;2023-11-22T11:39:48;5.45;;;2.50;;
34200;SDS011;20469;55.638;37.670;2023-11-22T11:42:16;4.90;;;3.15;;
34200;SDS011;20469;55.638;37.670;2023-11-22T11:47:19;5.68;;;2.92;;
34200;SDS011;20469;55.638;37.670;2023-11-22T11:49:48;7.70;;;3.30;;
34200;SDS011;20469;55.638;37.670;2023-11-22T11:52:19;3.67;;;2.70;;
34200;SDS011;20469;55.638;37.670;2023-11-22T11:54:47;4.95;;;2.80;;
34200;SDS011;20469;55.638;37.670;2023-11-22T11:57:15;7.83;;;3.07;;
34200;SDS011;20469;55.638;37.670;2023-11-22T11:59:43;6.57;;;3.30;;
34200;SDS011;20469;55.638;37.670;2023-11-22T12:02:13;5.67;;;3.10;;
34200;SDS011;20469;55.638;37.670;2023-11-22T12:04:40;4.63;;;2.67;;
34200;SDS011;20469;55.638;37.670;2023-11-22T12:07:11;3.92;;;3.08;;
34200;SDS011;20469;55.638;37.670;2023-11-22T12:09:39;5.63;;;2.90;;
34200;SDS011;20469;55.638;37.670;2023-11-22T12:12:07;3.07;;;2.43;;
34200;SDS011;20469;55.638;37.670;2023-11-22T12:14:35;4.57;;;2.70;;
34200;SDS011;20469;55.638;37.670;2023-11-22T12:17:03;4.13;;;2.33;;
34200;SDS011;20469;55.638;37.670;2023-11-22T12:19:32;5.17;;;2.50;;
34200;SDS011;20469;55.638;37.670;2023-11-22T12:22:02;2.93;;;2.20;;
34200;SDS011;20469;55.638;37.670;2023-11-22T12:24:32;4.90;;;2.50;;
34200;SDS011;20469;55.638;37.670;2023-11-22T12:27:00;3.90;;;2.63;;
34200;SDS011;20469;55.638;37.670;2023-11-22T12:29:27;4.40;;;2.40;;
34200;SDS011;20469;55.638;37.670;2023-11-22T12:31:55;4.10;;;2.40;;
34200;SDS011;20469;55.638;37.670;2023-11-22T12:34:23;4.23;;;2.57;;
34200;SDS011;20469;55.638;37.670;2023-11-22T12:36:52;7.43;;;2.90;;
34200;SDS011;20469;55.638;37.670;2023-11-22T12:39:20;7.43;;;2.90;;
34200;SDS011;20469;55.638;37.670;2023-11-22T12:41:49;5.97;;;3.10;;
34200;SDS011;20469;55.638;37.670;2023-11-22T12:44:43;7.13;;;2.97;;
34200;SDS011;20469;55.638;37.670;2023-11-22T12:47:15;5.90;;;3.07;;
34200;SDS011;20469;55.638;37.670;2023-11-22T12:49:44;6.57;;;3.20;;
34200;SDS011;20469;55.638;37.670;2023-11-22T12:52:13;5.03;;;2.87;;
34200;SDS011;20469;55.638;37.670;2023-11-22T12:54:41;4.90;;;2.80;;
34200;SDS011;20469;55.638;37.670;2023-11-22T12:57:11;4.73;;;2.80;;
34200;SDS011;20469;55.638;37.670;2023-11-22T12:59:39;4.80;;;2.87;;
34200;SDS011;20469;55.638;37.670;2023-11-22T13:02:08;7.07;;;3.27;;
34200;SDS011;20469;55.638;37.670;2023-11-22T13:04:36;8.17;;;3.40;;
34200;SDS011;20469;55.638;37.670;2023-11-22T13:07:04;6.10;;;3.53;;
34200;SDS011;20469;55.638;37.670;2023-11-22T13:09:31;9.47;;;3.80;;
34200;SDS011;20469;55.638;37.670;2023-11-22T13:12:02;7.43;;;3.93;;
34200;SDS011;20469;55.638;37.670;2023-11-22T13:14:31;6.67;;;3.90;;
34200;SDS011;20469;55.638;37.670;2023-11-22T13:17:02;8.97;;;3.97;;
34200;SDS011;20469;55.638;37.670;2023-11-22T13:19:31;7.70;;;3.80;;
34200;SDS011;20469;55.638;37.670;2023-11-22T13:21:58;9.43;;;3.93;;
34200;SDS011;20469;55.638;37.670;2023-11-22T13:24:26;6.23;;;3.70;;
34200;SDS011;20469;55.638;37.670;2023-11-22T13:26:54;5.67;;;3.33;;
34200;SDS011;20469;55.638;37.670;2023-11-22T13:29:22;5.43;;;3.30;;
34200;SDS011;20469;55.638;37.670;2023-11-22T13:31:50;5.23;;;2.80;;
34200;SDS011;20469;55.638;37.670;2023-11-22T13:34:18;7.33;;;2.90;;
34200;SDS011;20469;55.638;37.670;2023-11-22T13:36:46;4.17;;;2.80;;
34200;SDS011;20469;55.638;37.670;2023-11-22T13:39:14;4.37;;;2.93;;
34200;SDS011;20469;55.638;37.670;2023-11-22T13:41:41;6.70;;;3.17;;
34200;SDS011;20469;55.638;37.670;2023-11-22T13:44:09;5.97;;;3.43;;
34200;SDS011;20469;55.638;37.670;2023-11-22T13:46:37;6.70;;;3.60;;
34200;SDS011;20469;55.638;37.670;2023-11-22T13:49:04;6.00;;;3.93;;
34200;SDS011;20469;55.638;37.670;2023-11-22T13:51:33;8.77;;;4.20;;
34200;SDS011;20469;55.638;37.670;2023-11-22T13:54:01;9.67;;;4.17;;
34200;SDS011;20469;55.638;37.670;2023-11-22T13:56:29;9.70;;;5.33;;
34200;SDS011;20469;55.638;37.670;2023-11-22T13:58:57;7.83;;;4.40;;
34200;SDS011;20469;55.638;37.670;2023-11-22T14:01:26;6.80;;;4.07;;
34200;SDS011;20469;55.638;37.670;2023-11-22T14:03:54;7.30;;;3.97;;
34200;SDS011;20469;55.638;37.670;2023-11-22T14:06:23;10.37;;;4.23;;
34200;SDS011;20469;55.638;37.670;2023-11-22T14:08:51;7.70;;;3.93;;
34200;SDS011;20469;55.638;37.670;2023-11-22T14:11:19;10.10;;;4.20;;
34200;SDS011;20469;55.638;37.670;2023-11-22T14:13:47;5.97;;;3.80;;
34200;SDS011;20469;55.638;37.670;2023-11-22T14:16:15;6.67;;;3.70;;
34200;SDS011;20469;55.638;37.670;2023-11-22T14:18:43;6.30;;;4.10;;
34200;SDS011;20469;55.638;37.670;2023-11-22T14:21:11;8.77;;;3.80;;
34200;SDS011;20469;55.638;37.670;2023-11-22T14:23:39;8.10;;;4.30;;
34200;SDS011;20469;55.638;37.670;2023-11-22T14:26:06;6.70;;;3.90;;
34200;SDS011;20469;55.638;37.670;2023-11-22T14:28:34;5.83;;;3.47;;
34200;SDS011;20469;55.638;37.670;2023-11-22T14:31:02;7.00;;;3.67;;
34200;SDS011;20469;55.638;37.670;2023-11-22T14:33:31;7.53;;;4.10;;
34200;SDS011;20469;55.638;37.670;2023-11-22T14:35:59;5.47;;;3.50;;
34200;SDS011;20469;55.638;37.670;2023-11-22T14:38:27;7.33;;;3.80;;
34200;SDS011;20469;55.638;37.670;2023-11-22T14:40:55;6.03;;;3.53;;
34200;SDS011;20469;55.638;37.670;2023-11-22T14:43:23;6.73;;;3.50;;
34200;SDS011;20469;55.638;37.670;2023-11-22T14:45:51;7.10;;;3.67;;
34200;SDS011;20469;55.638;37.670;2023-11-22T14:48:19;5.93;;;3.73;;